createdAt,value
2023-02-06T00:04:21.871Z,100398.72
2023-02-06T00:09:25.517Z,100395.78
2023-02-06T00:14:30.347Z,100400.25
2023-02-06T00:19:33.536Z,100402.22
2023-02-06T00:24:36.985Z,100406.84
2023-02-06T00:29:42.026Z,100403.09
2023-02-06T00:34:45.598Z,100400.97
2023-02-06T00:39:49.339Z,100404.09
2023-02-06T00:44:54.261Z,100398.44
2023-02-06T00:49:57.946Z,100390.97
2023-02-06T00:55:01.433Z,100395.47
2023-02-06T01:00:08.314Z,100395.38
2023-02-06T01:05:12.163Z,100404.47
2023-02-06T01:10:16.267Z,100412.03
2023-02-06T01:15:21.118Z,100409.28
2023-02-06T01:20:24.925Z,100409.47
2023-02-06T01:25:28.379Z,100391.16
2023-02-06T01:30:33.561Z,100409.38
2023-02-06T01:35:37.393Z,100409.78
2023-02-06T01:40:41.184Z,100388.03
2023-02-06T01:45:47.726Z,100405.38
2023-02-06T01:50:55.016Z,100405.16
2023-02-06T01:56:02.450Z,100399.69
2023-02-06T02:01:08.977Z,100394.59
2023-02-06T02:06:15.455Z,100401.28
2023-02-06T02:11:25.022Z,100400.19
2023-02-06T02:16:42.155Z,100411.06
2023-02-06T02:22:23.117Z,100421.56
2023-02-06T02:28:00.490Z,100409.88
2023-02-06T02:33:36.444Z,100408.00
2023-02-06T02:38:53.610Z,100405.56
2023-02-06T02:44:03.177Z,100411.56
2023-02-06T02:49:12.782Z,100414.50
2023-02-06T02:54:17.704Z,100407.81
2023-02-06T02:59:25.717Z,100410.16
2023-02-06T03:04:36.377Z,100415.25
2023-02-06T03:09:59.156Z,100413.63
2023-02-06T03:15:09.127Z,100412.81
2023-02-06T03:20:14.003Z,100427.44
2023-02-06T03:25:25.204Z,100414.28
2023-02-06T03:30:31.512Z,100416.25
2023-02-06T03:35:38.460Z,100416.16
2023-02-06T03:40:48.825Z,100409.28
2023-02-06T03:45:55.847Z,100411.06
2023-02-06T03:51:04.302Z,100415.34
2023-02-06T03:56:14.502Z,100413.16
2023-02-06T04:01:19.128Z,100419.50
2023-02-06T04:06:22.994Z,100407.00
2023-02-06T04:11:28.012Z,100402.41
2023-02-06T04:16:31.628Z,100390.66
2023-02-06T04:21:35.272Z,100407.13
2023-02-06T04:26:40.375Z,100399.78
2023-02-06T04:31:44.293Z,100398.81
2023-02-06T04:36:47.933Z,100402.81
2023-02-06T04:41:53.486Z,100419.28
2023-02-06T04:46:57.139Z,100380.25
2023-02-06T04:52:00.746Z,100403.81
2023-02-06T04:57:05.782Z,100414.06
2023-02-06T05:02:09.403Z,100413.59
2023-02-06T05:07:13.047Z,100416.44
2023-02-06T05:12:18.125Z,100417.03
2023-02-06T05:17:21.774Z,100419.56
2023-02-06T05:22:25.396Z,100424.03
2023-02-06T05:27:30.477Z,100419.72
2023-02-06T05:32:33.847Z,100425.47
2023-02-06T05:37:38.980Z,100427.94
2023-02-06T05:42:43.792Z,100408.44
2023-02-06T05:47:47.590Z,100420.69
2023-02-06T05:52:50.983Z,100426.06
2023-02-06T05:57:55.974Z,100410.59
2023-02-06T06:02:59.390Z,100412.25
2023-02-06T06:08:03.082Z,100431.69
2023-02-06T06:13:08.470Z,100426.13
2023-02-06T06:18:12.385Z,100450.22
2023-02-06T06:23:15.878Z,100448.94
2023-02-06T06:28:20.963Z,100462.50
2023-02-06T06:33:24.507Z,100426.34
2023-02-06T06:38:28.471Z,100459.69
2023-02-06T06:43:33.745Z,100456.72
2023-02-06T06:48:38.611Z,100455.25
2023-02-06T06:53:42.133Z,100461.97
2023-02-06T06:58:47.201Z,100457.50
2023-02-06T07:03:50.668Z,100461.78
2023-02-06T07:08:54.773Z,100453.63
2023-02-06T07:13:59.721Z,100461.69
2023-02-06T07:19:03.340Z,100460.06
2023-02-06T07:24:07.330Z,100456.59
2023-02-06T07:29:12.383Z,100459.97
2023-02-06T07:34:16.913Z,100457.22
2023-02-06T07:39:20.670Z,100458.28
2023-02-06T07:44:25.643Z,100461.84
2023-02-06T07:49:29.273Z,100464.75
2023-02-06T07:54:33.213Z,100472.00
2023-02-06T07:59:38.250Z,100466.94
2023-02-06T08:04:41.862Z,100469.06
2023-02-06T08:09:45.636Z,100462.91
2023-02-06T08:14:50.545Z,100463.28
2023-02-06T08:19:54.000Z,100470.53
2023-02-06T08:24:57.496Z,100461.63
2023-02-06T08:30:02.396Z,100470.91
2023-02-06T08:35:08.137Z,100465.63
2023-02-06T08:40:12.815Z,100461.50
2023-02-06T08:45:17.847Z,100468.28
2023-02-06T08:50:21.464Z,100472.38
2023-02-06T08:55:25.184Z,100475.41
2023-02-06T09:00:30.473Z,100468.69
2023-02-06T09:05:34.924Z,100471.44
2023-02-06T09:10:38.695Z,100455.94
2023-02-06T09:15:43.620Z,100463.78
2023-02-06T09:20:49.889Z,100462.72
2023-02-06T09:25:53.263Z,100470.97
2023-02-06T09:30:58.542Z,100467.91
2023-02-06T09:36:07.137Z,100465.53
2023-02-06T09:41:18.554Z,100470.94
2023-02-06T09:46:28.625Z,100461.56
2023-02-06T09:51:44.210Z,100472.41
2023-02-06T09:56:55.620Z,100471.69
2023-02-06T10:02:15.746Z,100470.44
2023-02-06T10:07:34.414Z,100470.34
2023-02-06T10:12:42.827Z,100478.78
2023-02-06T10:17:53.986Z,100477.78
2023-02-06T10:23:10.063Z,100478.03
2023-02-06T10:28:23.223Z,100467.81
2023-02-06T10:33:36.346Z,100459.34
2023-02-06T10:38:58.640Z,100462.94
2023-02-06T10:44:09.916Z,100461.19
2023-02-06T10:49:22.738Z,100458.53
2023-02-06T10:54:31.490Z,100450.78
2023-02-06T10:59:40.832Z,100452.25
2023-02-06T11:04:51.892Z,100460.00
2023-02-06T11:09:55.578Z,100455.91
2023-02-06T11:15:05.022Z,100454.22
2023-02-06T11:20:22.104Z,100458.56
2023-02-06T11:25:31.708Z,100461.13
2023-02-06T11:30:38.797Z,100460.34
2023-02-06T11:35:55.021Z,100449.59
2023-02-06T11:41:02.381Z,100456.31
2023-02-06T11:46:17.091Z,100458.06
2023-02-06T11:51:25.623Z,100460.94
2023-02-06T11:56:30.691Z,100463.47
2023-02-06T12:01:43.386Z,100450.94
2023-02-06T12:06:48.514Z,100458.28
2023-02-06T12:11:59.126Z,100458.59
2023-02-06T12:17:05.073Z,100454.78
2023-02-06T12:22:17.824Z,100452.72
2023-02-06T12:27:24.567Z,100444.47
2023-02-06T12:32:33.275Z,100449.50
2023-02-06T12:37:44.330Z,100435.16
2023-02-06T12:42:51.674Z,100427.03
2023-02-06T12:47:59.483Z,100449.28
2023-02-06T12:53:07.939Z,100443.78
2023-02-06T12:58:28.504Z,100450.53
2023-02-06T13:03:36.897Z,100456.31
2023-02-06T13:08:46.618Z,100452.03
2023-02-06T13:13:51.017Z,100457.81
2023-02-06T13:18:55.333Z,100454.97
2023-02-06T13:24:17.172Z,100459.13
2023-02-06T13:29:26.863Z,100444.84
2023-02-06T13:34:30.523Z,100467.50
2023-02-06T13:39:35.650Z,100449.88
2023-02-06T13:44:40.775Z,100474.06
2023-02-06T13:50:22.623Z,100480.28
2023-02-06T13:55:39.361Z,100486.00
2023-02-06T14:00:48.258Z,100485.34
2023-02-06T14:06:01.286Z,100489.06
2023-02-06T14:11:30.754Z,100492.81
2023-02-06T14:16:46.159Z,100494.06
2023-02-06T14:21:58.999Z,100486.47
2023-02-06T14:27:18.713Z,100490.25
2023-02-06T14:32:48.039Z,100481.28
2023-02-06T14:38:09.550Z,100482.63
2023-02-06T14:43:19.187Z,100485.28
2023-02-06T14:48:27.896Z,100489.00
2023-02-06T14:53:33.960Z,100483.34
2023-02-06T14:58:38.988Z,100489.47
2023-02-06T15:03:42.997Z,100494.88
2023-02-06T15:08:50.422Z,100491.44
2023-02-06T15:13:57.599Z,100503.72
2023-02-06T15:19:14.662Z,100504.97
2023-02-06T15:24:40.126Z,100502.06
2023-02-06T15:29:49.910Z,100507.59
2023-02-06T15:34:53.508Z,100514.06
2023-02-06T15:39:58.674Z,100509.84
2023-02-06T15:45:03.845Z,100501.56
2023-02-06T15:50:12.507Z,100508.22
2023-02-06T15:55:27.883Z,100519.09
2023-02-06T16:00:36.731Z,100507.25
2023-02-06T16:05:43.724Z,100498.56
2023-02-06T16:10:52.228Z,100500.66
2023-02-06T16:16:06.847Z,100496.25
2023-02-06T16:21:21.641Z,100508.16
2023-02-06T16:26:27.904Z,100517.22
2023-02-06T16:31:36.142Z,100515.03
2023-02-06T16:36:39.891Z,100517.22
2023-02-06T16:41:43.704Z,100504.63
2023-02-06T16:46:48.760Z,100520.66
2023-02-06T16:51:55.128Z,100523.75
2023-02-06T16:57:07.724Z,100533.25
2023-02-06T17:02:15.092Z,100548.41
2023-02-06T17:07:21.162Z,100552.13
2023-02-06T17:12:24.836Z,100563.84
2023-02-06T17:17:29.922Z,100550.66
2023-02-06T17:22:33.309Z,100568.00
2023-02-06T17:27:36.965Z,100576.13
2023-02-06T17:32:41.765Z,100597.25
2023-02-06T17:37:45.175Z,100596.09
2023-02-06T17:42:49.238Z,100601.09
2023-02-06T17:47:54.932Z,100604.88
2023-02-06T17:52:59.730Z,100614.81
2023-02-06T17:58:03.215Z,100604.97
2023-02-06T18:03:08.063Z,100608.19
2023-02-06T18:08:12.333Z,100618.03
2023-02-06T18:13:15.728Z,100628.41
2023-02-06T18:18:22.056Z,100603.00
2023-02-06T18:23:25.741Z,100624.78
2023-02-06T18:28:32.233Z,100645.22
2023-02-06T18:33:37.413Z,100650.38
2023-02-06T18:38:41.055Z,100648.97
2023-02-06T18:43:44.593Z,100651.72
2023-02-06T18:48:49.663Z,100670.34
2023-02-06T18:53:53.369Z,100677.59
2023-02-06T18:58:57.073Z,100672.50
2023-02-06T19:04:02.013Z,100677.03
2023-02-06T19:09:08.106Z,100674.28
2023-02-06T19:14:15.565Z,100662.09
2023-02-06T19:19:20.694Z,100659.09
2023-02-06T19:24:26.469Z,100660.38
2023-02-06T19:29:36.124Z,100671.19
2023-02-06T19:34:44.327Z,100679.88
2023-02-06T19:39:48.152Z,100678.81
2023-02-06T19:44:54.668Z,100689.22
2023-02-06T19:49:59.715Z,100700.09
2023-02-06T19:55:03.255Z,100704.81
2023-02-06T20:00:07.888Z,100704.72
2023-02-06T20:05:12.789Z,100696.44
2023-02-06T20:10:16.561Z,100693.53
2023-02-06T20:15:20.153Z,100704.16
2023-02-06T20:20:25.248Z,100698.97
2023-02-06T20:25:28.938Z,100706.16
2023-02-06T20:30:33.251Z,100710.53
2023-02-06T20:35:42.658Z,100719.19
2023-02-06T20:40:51.792Z,100709.84
2023-02-06T20:45:55.355Z,100720.06
2023-02-06T20:51:01.099Z,100702.28
2023-02-06T20:56:04.803Z,100721.44
2023-02-06T21:01:14.686Z,100713.53
2023-02-06T21:06:21.291Z,100725.97
2023-02-06T21:11:29.466Z,100733.09
2023-02-06T21:16:34.061Z,100743.00
2023-02-06T21:21:39.840Z,100741.81
2023-02-06T21:26:43.879Z,100739.16
2023-02-06T21:31:47.587Z,100748.63
2023-02-06T21:36:53.763Z,100742.44
2023-02-06T21:41:57.767Z,100742.09
2023-02-06T21:47:01.762Z,100746.91
2023-02-06T21:52:06.960Z,100754.22
2023-02-06T21:57:10.559Z,100758.22
2023-02-06T22:02:14.268Z,100769.25
2023-02-06T22:07:20.162Z,100764.31
2023-02-06T22:12:23.780Z,100759.72
2023-02-06T22:17:27.709Z,100761.59
2023-02-06T22:22:32.561Z,100767.97
2023-02-06T22:27:36.527Z,100781.38
2023-02-06T22:32:40.831Z,100772.59
2023-02-06T22:37:47.486Z,100775.94
2023-02-06T22:42:50.866Z,100786.50
2023-02-06T22:47:54.747Z,100790.31
2023-02-06T22:53:16.781Z,100786.91
2023-02-06T22:58:20.423Z,100781.16
2023-02-06T23:03:24.028Z,100764.34
2023-02-06T23:08:29.211Z,100800.84
2023-02-06T23:13:33.213Z,100793.38
2023-02-06T23:18:37.398Z,100796.50
2023-02-06T23:23:42.866Z,100792.97
2023-02-06T23:28:46.725Z,100808.28
2023-02-06T23:33:50.162Z,100802.94
2023-02-06T23:38:55.474Z,100809.13
2023-02-06T23:44:01.657Z,100808.38
2023-02-06T23:49:05.738Z,100824.44
2023-02-06T23:54:10.704Z,100821.81
2023-02-06T23:59:14.389Z,100837.22
